Portada
METAR-TAF:

METAR-TAF

Aeropuertos :

Aeropuerto de Okadama

Sapporo, Japón

latitud: 43-07N, longitud: 141-23E, altitud: 8 m

Observación

El informe se hizo hace 1 hora y 55 minutos, a las 11:11 UTC
Viento 11 kt del noroeste
Temperatura -1°C
Humedad 93%
Presión 1010 hPa
Visibilidad: 0600 m
Escasas nubes a una altura de 300 ft
Cielo nuboso a una altura de 800 ft
Cielo cubierto a una altura de 1000 ft
chaparrones de nieve

METAR: RJCO 201111Z 31011KT 0600 R32/1800D SHSN FEW003 BKN008 OVC010 M01/M02 Q1010 RMK 2ST003 5ST008 8ST010 A2983

Hora: 22:06 (13:06 UTC)


TAF: falta

Observaciones y pronósticos meteorológicos de más de 4000 aeropuertos (mensajes METAR y TAF).

Los puntos amarillos y rojos representan las estaciones disponibles.

Ponga el ratón en el punto deseado para ver el nombre de la estación.

Haga clic para ver las observaciones y los pronósticos meteorológicos.

Para cambiar el mapa : haga clic en los botones verdes con una cruz de color negro para hacer un zoom, en el botón verde con un guión para alejar o en las flechas verdes para mapas adyacentes.


METAR-TAF: